Yacolt, Washington
Current Conditions -  °F | °C
As of 1:53 AM on Sunday 26 Oct 2014 (Local Time) from KVUO Reporting Station
Few Clouds Few Clouds  
Wind Chill: 52°   Ceiling: Unl
Heat Index: 52°   Visibility: 10mi
Dew Point: 47°   Wind: 5mph
Humidity: 83%   Direction: NA
Pressure: 29.95"   Gusts: NA
Location:  45.87°N, 122.41°W
Report Text: KVUO 260853Z AUTO VRB04KT 10SM FEW080 11/08 A2995 RMK AO2 SLP143 60000 T01110083 53027
Loading
Personal Weather Stations






























Interactive Weather Map New forecast layout! Learn more

10-Day Weather Forecast

Advertisements
Track Severe Weather on mobile